Time;durP1;ratioP1;P1;durP2;ratioP2;P2;SDS_P1;SDS_P2;PMS_P1;PMS_P2;Temp;Humidity;BMP_temperature;BMP_pressure;BME280_temperature;BME280_humidity;BME280_pressure;Samples;Min_cycle;Max_cycle;Signal;HPM_P1;HPM_P2
2022/08/17 00:00:40;;;;;;;;;27.50;26.25;;;;;;;;5073452;28;51035;-61
2022/08/17 00:03:08;;;;;;;;;28.75;25.00;;;;;;;;5073745;27;50889;-61
2022/08/17 00:05:39;;;;;;;;;33.50;31.25;;;;;;;;5073141;27;51193;-62
2022/08/17 00:08:05;;;;;;;;;19.75;16.50;;;;;;;;5073266;28;51131;-63
2022/08/17 00:10:31;;;;;;;;;34.25;32.00;;;;;;;;5073453;28;50893;-62
2022/08/17 00:12:56;;;;;;;;;26.00;23.25;;;;;;;;5073544;28;51199;-62
2022/08/17 00:15:21;;;;;;;;;22.00;19.75;;;;;;;;5073310;28;52222;-61
2022/08/17 00:17:47;;;;;;;;;22.25;21.25;;;;;;;;5072187;28;51052;-61
2022/08/17 00:20:13;;;;;;;;;19.00;18.00;;;;;;;;5073594;28;50977;-61
2022/08/17 00:22:38;;;;;;;;;16.25;16.25;;;;;;;;5073414;28;51298;-61
2022/08/17 00:25:05;;;;;;;;;15.33;15.33;;;;;;;;5072776;27;50875;-61
2022/08/17 00:27:31;;;;;;;;;15.50;14.75;;;;;;;;5073047;28;50972;-60
2022/08/17 00:29:56;;;;;;;;;17.00;16.50;;;;;;;;5072197;28;50906;-60
2022/08/17 00:32:21;;;;;;;;;20.00;19.33;;;;;;;;5071934;28;50905;-60
2022/08/17 00:34:46;;;;;;;;;15.67;14.67;;;;;;;;5073051;28;50961;-60
2022/08/17 00:37:12;;;;;;;;;16.67;15.33;;;;;;;;5073088;28;51153;-60
2022/08/17 00:39:37;;;;;;;;;17.67;17.67;;;;;;;;5072919;28;51002;-61
2022/08/17 00:42:11;;;;;;;;;13.67;13.00;;;;;;;;5071814;28;51348;-60
2022/08/17 00:44:36;;;;;;;;;14.67;14.33;;;;;;;;5072441;27;50894;-61
2022/08/17 00:47:01;;;;;;;;;16.67;15.33;;;;;;;;5071326;28;51005;-61
2022/08/17 00:49:26;;;;;;;;;19.33;18.33;;;;;;;;5073106;28;51243;-61
2022/08/17 00:51:55;;;;;;;;;16.00;16.00;;;;;;;;5073506;28;51184;-62
2022/08/17 00:54:26;;;;;;;;;19.67;17.67;;;;;;;;5065873;28;52174;-60
2022/08/17 00:56:53;;;;;;;;;16.67;15.33;;;;;;;;5073369;27;51095;-62
2022/08/17 00:59:20;;;;;;;;;16.75;16.00;;;;;;;;5073364;28;50961;-61
2022/08/17 01:01:46;;;;;;;;;16.00;16.00;;;;;;;;5073526;27;51269;-61
2022/08/17 01:04:12;;;;;;;;;17.00;16.75;;;;;;;;5072950;27;50972;-62
2022/08/17 01:06:39;;;;;;;;;20.00;20.00;;;;;;;;5073022;28;51076;-61
2022/08/17 01:09:04;;;;;;;;;16.67;16.67;;;;;;;;5072856;28;51000;-61
2022/08/17 01:11:30;;;;;;;;;15.75;15.50;;;;;;;;5073019;28;51077;-61
2022/08/17 01:13:55;;;;;;;;;18.33;17.00;;;;;;;;5072536;28;51062;-61
2022/08/17 01:16:21;;;;;;;;;19.00;18.67;;;;;;;;5073088;28;51059;-61
2022/08/17 01:18:49;;;;;;;;;14.50;14.50;;;;;;;;5072865;28;51132;-61
2022/08/17 01:21:19;;;;;;;;;18.67;18.00;;;;;;;;5073202;28;51022;-61
2022/08/17 01:23:44;;;;;;;;;17.33;16.00;;;;;;;;5072323;28;51141;-61
2022/08/17 01:26:09;;;;;;;;;17.33;16.00;;;;;;;;5070654;28;51031;-61
2022/08/17 01:28:37;;;;;;;;;16.33;15.67;;;;;;;;5071543;28;51277;-61
2022/08/17 01:31:04;;;;;;;;;17.33;16.33;;;;;;;;5073144;28;50925;-61
2022/08/17 01:33:29;;;;;;;;;19.00;18.00;;;;;;;;5071841;28;52011;-61
2022/08/17 01:35:55;;;;;;;;;18.75;18.00;;;;;;;;5072447;28;51004;-61
2022/08/17 01:38:21;;;;;;;;;21.25;19.75;;;;;;;;5072497;28;51152;-60
2022/08/17 01:40:50;;;;;;;;;17.75;17.75;;;;;;;;5073292;28;51164;-62
2022/08/17 01:43:20;;;;;;;;;14.67;14.33;;;;;;;;5075959;28;52390;-62
2022/08/17 01:45:46;;;;;;;;;18.67;18.33;;;;;;;;5076229;27;51139;-61
2022/08/17 01:48:12;;;;;;;;;16.25;16.00;;;;;;;;5076483;27;51298;-61
2022/08/17 01:50:38;;;;;;;;;19.75;19.25;;;;;;;;5074996;28;51098;-61
2022/08/17 01:53:06;;;;;;;;;20.00;19.00;;;;;;;;5075714;27;52560;-61
2022/08/17 01:55:39;;;;;;;;;17.75;17.25;;;;;;;;5075622;28;50996;-61
2022/08/17 01:58:08;;;;;;;;;19.00;18.75;;;;;;;;5075978;28;50840;-61
2022/08/17 02:00:33;;;;;;;;;20.00;19.00;;;;;;;;5075982;28;50896;-60
2022/08/17 02:02:59;;;;;;;;;18.00;18.00;;;;;;;;5075420;28;51886;-61
2022/08/17 02:05:24;;;;;;;;;20.00;19.25;;;;;;;;5075645;27;51056;-60
2022/08/17 02:07:50;;;;;;;;;20.75;20.50;;;;;;;;5075821;28;51087;-61
2022/08/17 02:10:15;;;;;;;;;18.00;17.00;;;;;;;;5075550;28;51422;-60
2022/08/17 02:12:41;;;;;;;;;23.50;22.25;;;;;;;;5075286;28;51679;-60
2022/08/17 02:15:07;;;;;;;;;19.50;18.50;;;;;;;;5075431;28;50980;-60
2022/08/17 02:17:33;;;;;;;;;21.25;20.00;;;;;;;;5075225;28;50924;-60
2022/08/17 02:19:58;;;;;;;;;21.00;19.75;;;;;;;;5075467;28;50961;-60
2022/08/17 02:22:24;;;;;;;;;19.25;16.50;;;;;;;;5075003;28;51797;-60
2022/08/17 02:24:50;;;;;;;;;25.75;25.00;;;;;;;;5075321;27;50895;-60
2022/08/17 02:27:16;;;;;;;;;22.00;22.00;;;;;;;;5075219;27;51044;-60
2022/08/17 02:29:41;;;;;;;;;29.50;25.75;;;;;;;;5074126;28;51335;-61
2022/08/17 02:32:14;;;;;;;;;25.00;22.75;;;;;;;;5074933;28;52352;-60
2022/08/17 02:34:40;;;;;;;;;25.00;24.50;;;;;;;;5075235;28;51009;-61
2022/08/17 02:37:05;;;;;;;;;25.00;24.00;;;;;;;;5074971;27;51006;-60
2022/08/17 02:39:31;;;;;;;;;28.75;26.50;;;;;;;;5075125;28;51309;-60
2022/08/17 02:42:02;;;;;;;;;26.25;24.50;;;;;;;;5074770;28;51931;-60
2022/08/17 02:44:28;;;;;;;;;21.50;21.00;;;;;;;;5074967;27;50942;-60
2022/08/17 02:46:53;;;;;;;;;21.75;21.25;;;;;;;;5074754;27;51091;-61
2022/08/17 02:49:18;;;;;;;;;22.25;21.00;;;;;;;;5075196;27;50885;-60
2022/08/17 02:51:43;;;;;;;;;16.75;16.75;;;;;;;;5074837;27;52033;-61
2022/08/17 02:54:08;;;;;;;;;20.50;20.25;;;;;;;;5073398;27;50989;-61
2022/08/17 02:56:34;;;;;;;;;18.75;18.25;;;;;;;;5074756;28;50804;-60
2022/08/17 02:58:59;;;;;;;;;18.00;17.00;;;;;;;;5075141;28;50849;-60
2022/08/17 03:01:24;;;;;;;;;18.75;17.25;;;;;;;;5074462;28;51062;-60
2022/08/17 03:03:49;;;;;;;;;16.67;15.67;;;;;;;;5074710;28;50929;-60
2022/08/17 03:06:15;;;;;;;;;18.75;17.75;;;;;;;;5074482;27;50961;-60
2022/08/17 03:08:40;;;;;;;;;21.00;19.25;;;;;;;;5073492;28;51300;-60
2022/08/17 03:11:06;;;;;;;;;16.75;16.00;;;;;;;;5074133;27;51898;-60
2022/08/17 03:13:31;;;;;;;;;22.50;21.25;;;;;;;;5074397;28;50970;-60
2022/08/17 03:15:56;;;;;;;;;20.25;19.50;;;;;;;;5074415;28;51049;-60
2022/08/17 03:18:22;;;;;;;;;17.67;17.00;;;;;;;;5074720;28;51331;-59
2022/08/17 03:20:47;;;;;;;;;20.00;18.33;;;;;;;;5074075;28;52227;-60
2022/08/17 03:23:12;;;;;;;;;19.75;18.00;;;;;;;;5074568;28;50997;-59
2022/08/17 03:25:40;;;;;;;;;17.00;17.00;;;;;;;;5073989;28;51029;-59
2022/08/17 03:28:05;;;;;;;;;19.00;18.00;;;;;;;;5074507;28;50882;-60
2022/08/17 03:30:31;;;;;;;;;19.33;19.33;;;;;;;;5073765;28;51709;-61
2022/08/17 03:32:58;;;;;;;;;20.00;18.67;;;;;;;;5074216;28;51095;-61
2022/08/17 03:35:25;;;;;;;;;18.00;16.67;;;;;;;;5073867;28;51090;-61
2022/08/17 03:37:50;;;;;;;;;18.00;17.75;;;;;;;;5074337;28;51322;-61
2022/08/17 03:40:16;;;;;;;;;21.00;18.25;;;;;;;;5073432;28;51940;-60
2022/08/17 03:42:41;;;;;;;;;19.75;19.50;;;;;;;;5074047;28;50906;-61
2022/08/17 03:45:10;;;;;;;;;22.25;20.50;;;;;;;;5074121;27;51090;-61
2022/08/17 03:58:36;;;;;;;;;16.33;16.00;;;;;;;;5073925;28;51192;-60
2022/08/17 04:01:01;;;;;;;;;18.33;18.00;;;;;;;;5073348;27;51871;-60
2022/08/17 04:03:26;;;;;;;;;19.33;19.33;;;;;;;;5073621;28;50910;-60
2022/08/17 04:05:51;;;;;;;;;18.67;18.67;;;;;;;;5073637;27;51070;-60
2022/08/17 04:08:17;;;;;;;;;20.00;19.67;;;;;;;;5072369;28;51285;-60
2022/08/17 04:10:42;;;;;;;;;21.25;20.25;;;;;;;;5073003;27;51742;-60
2022/08/17 04:13:08;;;;;;;;;17.00;17.00;;;;;;;;5073541;28;51071;-60
2022/08/17 04:15:33;;;;;;;;;18.00;17.33;;;;;;;;5073246;28;51014;-60
2022/08/17 04:17:58;;;;;;;;;17.33;17.33;;;;;;;;5073806;28;51136;-60
2022/08/17 04:20:24;;;;;;;;;17.33;17.33;;;;;;;;5072843;28;51370;-60
2022/08/17 04:23:03;;;;;;;;;18.00;17.67;;;;;;;;5073055;28;50916;-61
2022/08/17 04:25:31;;;;;;;;;21.33;19.33;;;;;;;;5072854;28;51026;-60
2022/08/17 04:27:56;;;;;;;;;20.00;20.00;;;;;;;;5072960;28;51261;-60
2022/08/17 04:30:22;;;;;;;;;21.25;21.25;;;;;;;;5072602;28;51296;-60
2022/08/17 04:32:55;;;;;;;;;22.00;21.50;;;;;;;;5072996;28;51009;-60
2022/08/17 04:35:23;;;;;;;;;22.25;20.50;;;;;;;;5072928;28;51076;-60
2022/08/17 04:37:48;;;;;;;;;22.25;20.00;;;;;;;;5072941;28;51155;-60
2022/08/17 04:43:06;;;;;;;;;18.25;18.25;;;;;;;;5073459;28;50873;-61
2022/08/17 04:45:31;;;;;;;;;19.50;18.50;;;;;;;;5073420;28;51049;-60
2022/08/17 04:47:56;;;;;;;;;18.75;18.25;;;;;;;;5073102;28;50983;-61
2022/08/17 04:50:21;;;;;;;;;21.25;19.25;;;;;;;;5072559;28;52237;-61
2022/08/17 04:52:46;;;;;;;;;18.00;18.00;;;;;;;;5073068;28;51017;-61
2022/08/17 04:55:13;;;;;;;;;21.00;20.75;;;;;;;;5072464;27;51023;-60
2022/08/17 04:57:38;;;;;;;;;20.33;17.67;;;;;;;;5073243;28;50881;-61
2022/08/17 05:00:04;;;;;;;;;20.25;19.25;;;;;;;;5072453;28;52008;-60
2022/08/17 05:02:30;;;;;;;;;18.50;18.00;;;;;;;;5072494;28;51005;-60
2022/08/17 05:04:56;;;;;;;;;19.75;18.75;;;;;;;;5072592;28;51050;-60
2022/08/17 05:07:21;;;;;;;;;22.25;21.00;;;;;;;;5072557;28;51363;-61
2022/08/17 05:09:46;;;;;;;;;21.00;20.00;;;;;;;;5072104;28;51967;-60
2022/08/17 05:12:11;;;;;;;;;19.50;19.25;;;;;;;;5072477;28;51040;-60
2022/08/17 05:14:37;;;;;;;;;19.50;19.50;;;;;;;;5072318;28;50993;-60
2022/08/17 05:17:03;;;;;;;;;21.00;20.50;;;;;;;;5071953;28;51314;-60
2022/08/17 05:19:28;;;;;;;;;20.75;20.75;;;;;;;;5070650;28;52424;-61
2022/08/17 05:21:53;;;;;;;;;21.75;21.50;;;;;;;;5072476;28;51040;-60
2022/08/17 05:24:18;;;;;;;;;22.75;20.75;;;;;;;;5071751;28;51245;-60
2022/08/17 05:26:43;;;;;;;;;22.50;22.25;;;;;;;;5072159;28;51368;-60
2022/08/17 05:29:08;;;;;;;;;19.00;18.75;;;;;;;;5072086;28;52281;-62
2022/08/17 05:31:34;;;;;;;;;26.00;24.75;;;;;;;;5072231;28;51073;-60
2022/08/17 05:33:59;;;;;;;;;20.25;20.25;;;;;;;;5072115;28;51111;-60
2022/08/17 05:36:24;;;;;;;;;20.75;19.75;;;;;;;;5072223;28;51410;-61
2022/08/17 05:38:50;;;;;;;;;31.00;30.25;;;;;;;;5071604;28;52043;-61
2022/08/17 05:41:15;;;;;;;;;27.75;21.75;;;;;;;;5072023;28;50984;-61
2022/08/17 05:43:41;;;;;;;;;27.50;27.50;;;;;;;;5070680;28;51067;-61
2022/08/17 05:46:12;;;;;;;;;25.25;25.00;;;;;;;;5072504;27;50894;-60
2022/08/17 05:48:41;;;;;;;;;27.00;25.25;;;;;;;;5071741;28;50976;-60
2022/08/17 05:51:15;;;;;;;;;25.00;24.50;;;;;;;;5072026;27;51094;-60
2022/08/17 05:53:49;;;;;;;;;27.50;27.25;;;;;;;;5070396;28;50984;-60
2022/08/17 05:56:33;;;;;;;;;22.75;22.75;;;;;;;;5070504;28;50997;-61
2022/08/17 05:59:07;;;;;;;;;26.00;24.75;;;;;;;;5071697;28;50988;-60
2022/08/17 06:01:39;;;;;;;;;22.00;21.75;;;;;;;;5071575;27;51017;-60
2022/08/17 06:04:13;;;;;;;;;21.00;21.00;;;;;;;;5071823;28;51025;-60
2022/08/17 06:06:40;;;;;;;;;21.50;20.50;;;;;;;;5071679;27;51145;-61
2022/08/17 06:09:24;;;;;;;;;22.00;20.00;;;;;;;;5071067;28;52146;-59
2022/08/17 06:11:56;;;;;;;;;25.50;24.50;;;;;;;;5071605;27;51007;-59
2022/08/17 06:14:44;;;;;;;;;21.50;19.50;;;;;;;;5071406;27;51101;-60
2022/08/17 06:17:12;;;;;;;;;24.67;21.33;;;;;;;;5032059;28;51106;-59
2022/08/17 06:19:43;;;;;;;;;21.67;20.67;;;;;;;;5071173;28;51748;-60
2022/08/17 06:22:11;;;;;;;;;23.00;21.67;;;;;;;;5071566;28;50885;-61
2022/08/17 06:24:40;;;;;;;;;24.75;22.50;;;;;;;;5072181;28;51089;-62
2022/08/17 06:27:11;;;;;;;;;22.33;21.33;;;;;;;;5070467;28;51258;-61
2022/08/17 06:29:45;;;;;;;;;18.50;18.50;;;;;;;;5073886;28;52783;-61
2022/08/17 06:32:11;;;;;;;;;21.75;21.25;;;;;;;;5074680;28;51080;-61
2022/08/17 06:34:37;;;;;;;;;17.75;17.50;;;;;;;;5073431;28;51178;-61
2022/08/17 06:37:08;;;;;;;;;24.25;22.50;;;;;;;;5075208;28;51073;-61
2022/08/17 06:39:39;;;;;;;;;23.50;22.75;;;;;;;;5074831;28;52102;-62
2022/08/17 06:42:05;;;;;;;;;21.50;20.00;;;;;;;;5074839;28;51191;-62
2022/08/17 06:44:30;;;;;;;;;25.00;22.25;;;;;;;;5075274;28;51059;-61
2022/08/17 06:47:05;;;;;;;;;25.25;24.75;;;;;;;;5075316;28;51346;-60
2022/08/17 06:49:39;;;;;;;;;23.25;23.25;;;;;;;;5074736;28;51293;-61
2022/08/17 06:52:19;;;;;;;;;28.75;28.00;;;;;;;;5074856;28;51130;-61
2022/08/17 06:54:47;;;;;;;;;26.25;24.00;;;;;;;;5074016;27;52021;-61
2022/08/17 06:57:23;;;;;;;;;17.50;15.75;;;;;;;;5074470;28;51262;-61
2022/08/17 06:59:58;;;;;;;;;21.50;21.50;;;;;;;;5074033;28;52194;-62
2022/08/17 07:02:26;;;;;;;;;28.50;24.00;;;;;;;;5073527;27;50990;-61
2022/08/17 07:04:51;;;;;;;;;20.50;20.00;;;;;;;;5074214;28;51274;-61
2022/08/17 07:10:02;;;;;;;;;24.00;24.00;;;;;;;;5074136;28;51492;-60
2022/08/17 07:12:30;;;;;;;;;30.75;29.00;;;;;;;;5074065;27;50945;-62
2022/08/17 07:15:07;;;;;;;;;34.75;31.25;;;;;;;;5074481;28;51012;-61
2022/08/17 07:17:33;;;;;;;;;23.25;22.00;;;;;;;;5074016;28;50891;-61
2022/08/17 07:20:07;;;;;;;;;28.25;25.50;;;;;;;;5073920;28;51079;-60
2022/08/17 07:22:58;;;;;;;;;19.75;19.50;;;;;;;;5073798;27;51020;-60
2022/08/17 07:25:23;;;;;;;;;22.50;22.50;;;;;;;;5072557;27;51286;-60
2022/08/17 07:27:51;;;;;;;;;22.50;21.50;;;;;;;;5074610;28;50871;-60
2022/08/17 07:30:23;;;;;;;;;20.75;20.75;;;;;;;;5072618;28;52723;-62
2022/08/17 07:32:56;;;;;;;;;24.50;23.00;;;;;;;;5072409;28;50899;-59
2022/08/17 07:35:28;;;;;;;;;23.00;23.00;;;;;;;;5073651;28;51109;-61
2022/08/17 07:38:13;;;;;;;;;22.25;21.50;;;;;;;;5072454;28;50984;-62
2022/08/17 07:41:03;;;;;;;;;24.00;22.00;;;;;;;;5072759;27;52319;-60
2022/08/17 07:43:29;;;;;;;;;21.50;20.75;;;;;;;;5073609;27;50863;-60
2022/08/17 07:48:42;;;;;;;;;22.25;21.25;;;;;;;;5073688;28;50877;-61
2022/08/17 07:51:24;;;;;;;;;22.00;21.00;;;;;;;;5073149;27;51458;-60
2022/08/17 07:53:49;;;;;;;;;21.25;20.50;;;;;;;;5072668;28;51047;-60
2022/08/17 07:56:30;;;;;;;;;20.75;20.25;;;;;;;;5073470;28;50933;-60
2022/08/17 07:59:04;;;;;;;;;23.50;22.50;;;;;;;;5073815;28;51050;-61
2022/08/17 08:01:30;;;;;;;;;21.50;20.50;;;;;;;;5073262;28;50925;-60
2022/08/17 08:03:56;;;;;;;;;19.25;19.25;;;;;;;;5073289;28;51008;-62
2022/08/17 08:06:23;;;;;;;;;19.67;18.67;;;;;;;;5073293;28;50919;-61
2022/08/17 08:08:50;;;;;;;;;17.75;16.75;;;;;;;;5073067;28;50812;-62
2022/08/17 08:11:29;;;;;;;;;19.00;18.25;;;;;;;;5073141;27;52575;-61
2022/08/17 08:14:02;;;;;;;;;20.50;19.25;;;;;;;;5071795;28;51015;-63
2022/08/17 08:16:28;;;;;;;;;22.25;21.75;;;;;;;;5049782;28;67554;-62
2022/08/17 08:18:55;;;;;;;;;19.25;19.25;;;;;;;;5066108;28;51042;-62
2022/08/17 08:21:30;;;;;;;;;20.25;19.50;;;;;;;;5071307;28;52314;-61
2022/08/17 08:24:13;;;;;;;;;24.50;24.25;;;;;;;;5072583;28;51166;-61
2022/08/17 08:26:46;;;;;;;;;22.00;21.50;;;;;;;;5072787;27;50965;-61
2022/08/17 08:29:27;;;;;;;;;20.25;19.75;;;;;;;;5072640;28;50845;-61
2022/08/17 08:32:11;;;;;;;;;22.25;21.00;;;;;;;;5072695;28;51139;-62
2022/08/17 08:34:45;;;;;;;;;20.25;20.25;;;;;;;;5072788;27;51097;-60
2022/08/17 08:37:25;;;;;;;;;19.00;19.00;;;;;;;;5072747;28;51027;-60
2022/08/17 08:39:53;;;;;;;;;19.50;19.50;;;;;;;;5072795;28;50859;-60
2022/08/17 08:42:27;;;;;;;;;21.25;19.50;;;;;;;;5072722;28;52191;-62
2022/08/17 08:44:52;;;;;;;;;22.50;21.00;;;;;;;;5073117;28;51084;-61
2022/08/17 08:47:18;;;;;;;;;21.50;19.25;;;;;;;;5073318;28;51137;-60
2022/08/17 08:49:43;;;;;;;;;21.50;20.75;;;;;;;;5072867;28;51265;-60
2022/08/17 08:52:29;;;;;;;;;22.25;21.00;;;;;;;;5071901;28;52054;-61
2022/08/17 08:55:00;;;;;;;;;27.25;25.75;;;;;;;;5072042;28;51189;-61
2022/08/17 08:57:28;;;;;;;;;21.50;21.25;;;;;;;;5071243;28;51027;-61
2022/08/17 08:59:59;;;;;;;;;19.75;19.75;;;;;;;;5072715;27;51260;-61
2022/08/17 09:02:33;;;;;;;;;21.25;21.25;;;;;;;;5072055;27;51875;-61
2022/08/17 09:05:01;;;;;;;;;23.25;22.25;;;;;;;;5072284;28;51114;-60
2022/08/17 09:07:45;;;;;;;;;26.25;25.75;;;;;;;;5070671;28;51003;-61
2022/08/17 09:10:24;;;;;;;;;23.25;21.00;;;;;;;;5072094;27;51328;-62
2022/08/17 09:12:52;;;;;;;;;22.00;20.25;;;;;;;;5071968;28;52335;-61
2022/08/17 09:15:17;;;;;;;;;23.50;22.50;;;;;;;;5072415;28;51005;-61
2022/08/17 09:18:06;;;;;;;;;23.25;22.50;;;;;;;;5071871;28;50973;-61
2022/08/17 09:20:41;;;;;;;;;27.25;25.00;;;;;;;;5069041;27;51528;-61
2022/08/17 09:23:13;;;;;;;;;25.75;24.50;;;;;;;;5071582;27;51034;-62
2022/08/17 09:25:48;;;;;;;;;25.00;24.50;;;;;;;;5071551;28;50980;-61
2022/08/17 09:28:18;;;;;;;;;23.25;23.25;;;;;;;;5071960;28;51031;-61
2022/08/17 09:30:44;;;;;;;;;22.50;21.75;;;;;;;;5071816;28;51361;-62
2022/08/17 09:33:11;;;;;;;;;24.75;22.50;;;;;;;;5070232;28;52767;-61
2022/08/17 09:36:03;;;;;;;;;23.50;23.25;;;;;;;;5071122;28;51019;-61
2022/08/17 09:38:47;;;;;;;;;27.50;26.50;;;;;;;;5070267;28;51521;-62
2022/08/17 09:41:19;;;;;;;;;23.25;22.75;;;;;;;;5072213;27;51303;-62
2022/08/17 09:44:03;;;;;;;;;20.50;20.25;;;;;;;;5069852;28;53657;-61
2022/08/17 09:46:31;;;;;;;;;22.75;21.75;;;;;;;;5071627;27;51165;-61
2022/08/17 09:49:32;;;;;;;;;25.50;25.00;;;;;;;;5071878;28;50883;-64
2022/08/17 09:52:15;;;;;;;;;22.50;21.50;;;;;;;;5048975;28;51441;-63
2022/08/17 09:54:41;;;;;;;;;28.00;27.00;;;;;;;;5065075;28;53667;-61
2022/08/17 09:57:21;;;;;;;;;24.75;24.00;;;;;;;;5071638;28;51175;-61
2022/08/17 10:00:15;;;;;;;;;24.50;23.50;;;;;;;;5071588;28;51015;-61
2022/08/17 10:02:59;;;;;;;;;23.25;22.50;;;;;;;;5066472;28;50870;-61
2022/08/17 10:05:36;;;;;;;;;26.50;25.25;;;;;;;;5074480;27;51853;-61
2022/08/17 10:08:17;;;;;;;;;24.50;24.25;;;;;;;;5074483;27;50939;-60
2022/08/17 10:10:42;;;;;;;;;26.25;25.50;;;;;;;;5074175;27;51152;-61
2022/08/17 10:13:32;;;;;;;;;26.75;25.75;;;;;;;;5074943;27;51169;-61
2022/08/17 10:16:16;;;;;;;;;28.75;25.50;;;;;;;;5074399;27;51334;-61
2022/08/17 10:18:55;;;;;;;;;28.75;26.50;;;;;;;;5073969;28;51156;-62
2022/08/17 10:26:54;;;;;;;;;26.25;25.75;;;;;;;;5074586;28;51445;-61
2022/08/17 10:29:27;;;;;;;;;27.25;26.25;;;;;;;;5074791;28;51004;-61
2022/08/17 10:32:02;;;;;;;;;26.50;26.00;;;;;;;;5074724;28;50906;-61
2022/08/17 10:34:43;;;;;;;;;29.25;29.25;;;;;;;;5073055;28;51023;-61
2022/08/17 10:37:27;;;;;;;;;26.50;25.75;;;;;;;;5072603;28;52898;-61
2022/08/17 10:40:11;;;;;;;;;29.75;29.50;;;;;;;;5073784;27;51048;-61
2022/08/17 10:42:42;;;;;;;;;28.75;28.00;;;;;;;;5074551;27;50895;-62
2022/08/17 10:45:17;;;;;;;;;24.00;23.25;;;;;;;;5074534;28;51229;-61
2022/08/17 10:47:51;;;;;;;;;28.75;28.75;;;;;;;;5072784;28;51795;-61
2022/08/17 10:50:35;;;;;;;;;26.25;25.00;;;;;;;;5074171;28;50969;-61
2022/08/17 10:53:01;;;;;;;;;32.50;31.25;;;;;;;;5073983;27;51239;-61
2022/08/17 10:55:26;;;;;;;;;31.25;29.75;;;;;;;;5073857;28;51069;-61
2022/08/17 10:58:11;;;;;;;;;30.75;27.25;;;;;;;;5073642;28;51890;-61
2022/08/17 11:00:36;;;;;;;;;32.75;30.25;;;;;;;;5073740;27;51083;-61
2022/08/17 11:03:13;;;;;;;;;33.20;30.00;;;;;;;;5074037;27;51335;-61
2022/08/17 11:05:47;;;;;;;;;35.00;30.25;;;;;;;;5073754;28;50838;-60
2022/08/17 11:08:32;;;;;;;;;29.25;29.25;;;;;;;;5073180;28;51862;-61
2022/08/17 11:11:00;;;;;;;;;27.25;25.25;;;;;;;;5056125;28;51102;-61
2022/08/17 11:13:46;;;;;;;;;28.25;27.25;;;;;;;;5073807;28;50918;-61
2022/08/17 11:16:11;;;;;;;;;27.00;27.00;;;;;;;;5074159;28;51011;-61
2022/08/17 11:18:36;;;;;;;;;34.25;32.00;;;;;;;;5073439;28;51797;-61
2022/08/17 11:21:05;;;;;;;;;35.00;30.75;;;;;;;;5074511;28;50940;-61
2022/08/17 11:23:49;;;;;;;;;38.50;33.00;;;;;;;;5074692;28;50963;-61
2022/08/17 11:26:24;;;;;;;;;31.50;30.00;;;;;;;;5072683;28;51001;-62
2022/08/17 11:28:53;;;;;;;;;29.25;28.00;;;;;;;;5073730;28;51592;-62
2022/08/17 11:31:27;;;;;;;;;33.00;31.75;;;;;;;;5072571;28;50885;-60
2022/08/17 11:34:16;;;;;;;;;33.00;31.25;;;;;;;;5073692;28;50970;-62
2022/08/17 11:36:54;;;;;;;;;34.75;32.00;;;;;;;;5070499;28;51079;-61
2022/08/17 11:39:23;;;;;;;;;32.75;30.75;;;;;;;;5073246;28;51834;-61
2022/08/17 11:42:04;;;;;;;;;32.75;30.50;;;;;;;;5073356;28;50954;-61
2022/08/17 11:44:29;;;;;;;;;37.25;32.75;;;;;;;;5073289;28;50973;-61
2022/08/17 11:53:01;;;;;;;;;35.50;32.75;;;;;;;;5072842;28;50884;-60
2022/08/17 11:55:36;;;;;;;;;31.25;30.00;;;;;;;;5071111;28;51155;-62
2022/08/17 11:58:05;;;;;;;;;36.25;33.00;;;;;;;;5073475;27;51011;-61
2022/08/17 12:00:45;;;;;;;;;36.75;33.00;;;;;;;;5072839;28;52258;-61
2022/08/17 12:03:23;;;;;;;;;33.75;31.00;;;;;;;;5072831;27;51164;-62
2022/08/17 12:05:52;;;;;;;;;38.25;34.50;;;;;;;;5072914;27;51149;-61
2022/08/17 12:08:19;;;;;;;;;33.25;32.00;;;;;;;;5073191;28;51308;-61
2022/08/17 12:10:55;;;;;;;;;37.50;34.50;;;;;;;;5072170;28;52204;-61
2022/08/17 12:13:22;;;;;;;;;37.75;33.25;;;;;;;;5072956;28;50852;-61
2022/08/17 12:15:49;;;;;;;;;33.00;30.75;;;;;;;;5072843;28;51137;-61
2022/08/17 12:18:22;;;;;;;;;34.75;32.50;;;;;;;;5072831;28;51124;-61
2022/08/17 12:20:59;;;;;;;;;37.25;32.00;;;;;;;;5072373;28;51099;-62
2022/08/17 12:23:35;;;;;;;;;34.00;31.50;;;;;;;;5071763;28;51010;-63
2022/08/17 12:26:10;;;;;;;;;33.25;31.75;;;;;;;;5071596;28;51050;-62
2022/08/17 12:28:37;;;;;;;;;31.00;30.00;;;;;;;;5072726;28;51161;-61
2022/08/17 12:31:12;;;;;;;;;31.00;29.75;;;;;;;;5071085;28;51940;-62
2022/08/17 12:33:41;;;;;;;;;34.75;32.00;;;;;;;;5072511;27;51018;-61
2022/08/17 12:36:07;;;;;;;;;37.50;33.00;;;;;;;;5072901;28;51051;-61
2022/08/17 12:38:34;;;;;;;;;30.50;28.75;;;;;;;;5072330;28;51085;-61
2022/08/17 12:41:25;;;;;;;;;35.25;32.25;;;;;;;;5072610;28;51104;-62
2022/08/17 12:43:54;;;;;;;;;31.75;30.25;;;;;;;;5071894;27;51052;-61
2022/08/17 12:46:19;;;;;;;;;38.00;32.25;;;;;;;;5072005;28;50985;-61
2022/08/17 12:48:44;;;;;;;;;33.25;31.00;;;;;;;;5071987;28;50951;-61
2022/08/17 12:51:11;;;;;;;;;31.50;30.00;;;;;;;;5069029;28;51120;-61
2022/08/17 12:53:36;;;;;;;;;27.50;27.00;;;;;;;;5071789;27;51056;-62
2022/08/17 12:56:06;;;;;;;;;30.50;30.00;;;;;;;;5070801;28;51536;-61
2022/08/17 12:58:33;;;;;;;;;28.50;28.25;;;;;;;;5072255;28;50896;-62
2022/08/17 13:01:01;;;;;;;;;35.00;31.25;;;;;;;;5070181;28;53942;-61
2022/08/17 13:03:29;;;;;;;;;34.00;32.00;;;;;;;;5072072;28;51192;-62
2022/08/17 13:05:56;;;;;;;;;33.00;31.50;;;;;;;;5071939;27;51069;-62
2022/08/17 13:08:24;;;;;;;;;38.25;33.25;;;;;;;;5072283;28;50979;-61
2022/08/17 13:10:53;;;;;;;;;29.00;28.50;;;;;;;;5071527;28;51742;-63
2022/08/17 13:13:25;;;;;;;;;28.50;27.50;;;;;;;;5070523;28;51017;-61
2022/08/17 13:16:01;;;;;;;;;29.75;29.50;;;;;;;;5071508;28;51317;-60
2022/08/17 13:18:39;;;;;;;;;29.00;28.75;;;;;;;;5072052;28;51016;-61
2022/08/17 13:21:29;;;;;;;;;27.00;26.50;;;;;;;;5071549;27;51828;-61
2022/08/17 13:23:55;;;;;;;;;27.75;26.50;;;;;;;;5071345;28;51020;-62
2022/08/17 13:26:26;;;;;;;;;26.50;25.25;;;;;;;;5071902;28;51071;-61
2022/08/17 13:28:51;;;;;;;;;25.00;24.75;;;;;;;;5072274;28;51281;-63
2022/08/17 13:31:22;;;;;;;;;25.00;25.00;;;;;;;;5071919;27;51967;-62
2022/08/17 13:33:48;;;;;;;;;24.33;23.00;;;;;;;;5071674;28;51042;-61
2022/08/17 13:36:27;;;;;;;;;26.33;24.33;;;;;;;;5070194;28;51078;-62
2022/08/17 13:39:04;;;;;;;;;20.50;20.50;;;;;;;;5075266;28;50835;-62
2022/08/17 13:41:36;;;;;;;;;22.50;21.75;;;;;;;;5075151;28;52077;-61
2022/08/17 13:44:03;;;;;;;;;21.00;20.00;;;;;;;;5074879;28;50933;-62
2022/08/17 13:46:30;;;;;;;;;21.67;21.33;;;;;;;;5073361;28;51159;-61
2022/08/17 13:48:57;;;;;;;;;19.33;19.33;;;;;;;;5074845;28;50912;-64
2022/08/17 13:51:24;;;;;;;;;19.33;19.33;;;;;;;;5074316;28;51006;-62
2022/08/17 13:53:55;;;;;;;;;26.00;24.67;;;;;;;;5074230;28;51056;-62
2022/08/17 13:56:34;;;;;;;;;22.67;21.33;;;;;;;;5074665;28;51144;-62
2022/08/17 13:59:11;;;;;;;;;23.67;21.33;;;;;;;;5075347;28;51018;-61
2022/08/17 14:01:41;;;;;;;;;18.33;18.33;;;;;;;;5072772;28;52783;-62
2022/08/17 14:04:18;;;;;;;;;21.33;20.33;;;;;;;;5074714;28;50978;-61
2022/08/17 14:06:52;;;;;;;;;18.00;18.00;;;;;;;;5074682;27;51081;-62
2022/08/17 14:09:19;;;;;;;;;18.67;18.00;;;;;;;;5074313;28;50859;-61
2022/08/17 14:11:46;;;;;;;;;19.00;18.33;;;;;;;;5074538;27;50962;-61
2022/08/17 14:14:12;;;;;;;;;14.33;14.33;;;;;;;;5072358;28;51079;-61
2022/08/17 14:16:40;;;;;;;;;17.67;17.67;;;;;;;;5074690;28;50872;-62
2022/08/17 14:19:06;;;;;;;;;17.00;15.00;;;;;;;;5073613;28;51338;-61
2022/08/17 14:21:31;;;;;;;;;17.67;17.67;;;;;;;;5074256;27;51690;-61
2022/08/17 14:23:56;;;;;;;;;15.33;15.33;;;;;;;;5073969;28;51112;-62
2022/08/17 14:26:22;;;;;;;;;16.67;16.67;;;;;;;;5074791;27;51615;-62
2022/08/17 14:28:47;;;;;;;;;16.67;16.67;;;;;;;;5073194;28;51048;-63
2022/08/17 14:31:13;;;;;;;;;16.00;15.67;;;;;;;;5074471;28;51999;-61
2022/08/17 14:33:38;;;;;;;;;18.00;17.00;;;;;;;;5074402;28;50944;-62
2022/08/17 14:36:03;;;;;;;;;13.67;13.67;;;;;;;;5074908;27;51036;-63
2022/08/17 14:38:28;;;;;;;;;17.00;17.00;;;;;;;;5074262;28;51182;-61
2022/08/17 14:40:54;;;;;;;;;17.67;16.67;;;;;;;;5074286;27;50898;-61
2022/08/17 14:43:19;;;;;;;;;16.00;16.00;;;;;;;;5074411;27;51170;-61
2022/08/17 14:45:45;;;;;;;;;15.33;15.00;;;;;;;;5074178;28;50939;-60
2022/08/17 14:48:11;;;;;;;;;15.67;14.67;;;;;;;;5073821;28;51120;-62
2022/08/17 14:50:37;;;;;;;;;15.00;15.00;;;;;;;;5073786;28;50974;-62
2022/08/17 14:53:08;;;;;;;;;12.33;12.00;;;;;;;;5074133;28;51090;-62
2022/08/17 14:55:34;;;;;;;;;18.00;18.00;;;;;;;;5073785;28;51001;-62
2022/08/17 14:58:00;;;;;;;;;18.33;18.33;;;;;;;;5074077;28;50984;-63
2022/08/17 15:00:25;;;;;;;;;17.00;16.33;;;;;;;;5073236;27;51624;-62
2022/08/17 15:02:53;;;;;;;;;15.00;15.00;;;;;;;;5073727;27;50953;-62